Terminal Aerodrome Forecast
Issued by NWS

Home | Current Version | Previous Version | Text Only | Print | Product List | Glossary On
Versions: 1 2 3 4 5 6 7 8 9 10 11 12 13 14 15
565
FTAK31 PAJN 282320
TAFAPG
TAF
PAPG 282320Z 2900/2924 08004KT P6SM FEW007 SCT025 OVC060
     FM290300 14005KT P6SM VCSH BKN025 OVC050
     FM291500 12005KT 6SM -SHRA BR BKN020 OVC035
     FM292100 VRB03KT P6SM -SHRA BKN025 OVC040
      AMD NOT SKED=

USA.gov is the U.S. government's official web portal to all federal, state and local government web resources and services.